Time;durP1;ratioP1;P1;durP2;ratioP2;P2;SDS_P1;SDS_P2;PMS_P1;PMS_P2;Temp;Humidity;BMP_temperature;BMP_pressure;BME280_temperature;BME280_humidity;BME280_pressure;Samples;Min_cycle;Max_cycle;Signal;HPM_P1;HPM_P2
2022/09/15 00:03:05;;;;;;;0.60;0.60;;;;;;;;;;10294362;28;20070;-80
2022/09/15 00:08:09;;;;;;;0.65;0.57;;;;;;;;;;10287586;28;20047;-82
2022/09/15 00:13:14;;;;;;;0.60;0.30;;;;;;;;;;10299054;28;20106;-80
2022/09/15 00:18:23;;;;;;;0.60;0.47;;;;;;;;;;10307678;28;20038;-82
2022/09/15 00:23:27;;;;;;;1.05;0.60;;;;;;;;;;10287958;28;20419;-81
2022/09/15 00:28:32;;;;;;;0.60;0.60;;;;;;;;;;10263685;28;20066;-80
2022/09/15 00:33:38;;;;;;;0.90;0.47;;;;;;;;;;10272591;28;20043;-81
2022/09/15 00:38:42;;;;;;;0.87;0.67;;;;;;;;;;10280721;28;20530;-81
2022/09/15 00:43:52;;;;;;;0.40;0.40;;;;;;;;;;10279330;28;20593;-82
2022/09/15 00:49:03;;;;;;;0.45;0.25;;;;;;;;;;10279852;28;20074;-79
2022/09/15 00:54:17;;;;;;;0.40;0.35;;;;;;;;;;10280217;28;20069;-82
2022/09/15 00:59:25;;;;;;;0.40;0.40;;;;;;;;;;10295902;28;20121;-81
2022/09/15 01:04:28;;;;;;;0.70;0.70;;;;;;;;;;10277466;28;20047;-81
2022/09/15 01:09:40;;;;;;;1.00;0.90;;;;;;;;;;10277154;28;20077;-81
2022/09/15 01:14:45;;;;;;;1.42;1.33;;;;;;;;;;10271732;28;20062;-81
2022/09/15 01:20:25;;;;;;;3.42;2.63;;;;;;;;;;10277255;28;20078;-81
2022/09/15 01:25:43;;;;;;;2.75;2.10;;;;;;;;;;10275095;28;20039;-82
2022/09/15 01:30:52;;;;;;;2.72;1.98;;;;;;;;;;10268651;28;20047;-83
2022/09/15 01:36:04;;;;;;;1.27;1.00;;;;;;;;;;10276524;28;20051;-81
2022/09/15 01:41:14;;;;;;;1.17;1.02;;;;;;;;;;10274903;28;20046;-79
2022/09/15 01:46:23;;;;;;;1.52;1.40;;;;;;;;;;10275255;28;20066;-80
2022/09/15 01:51:28;;;;;;;3.60;2.83;;;;;;;;;;10277398;28;20043;-81
2022/09/15 01:56:32;;;;;;;6.32;4.50;;;;;;;;;;10293937;28;20126;-81
2022/09/15 02:01:50;;;;;;;5.90;4.30;;;;;;;;;;10268024;28;20515;-76
2022/09/15 02:06:57;;;;;;;9.65;7.22;;;;;;;;;;10276481;28;20082;-79
2022/09/15 02:12:06;;;;;;;7.60;6.13;;;;;;;;;;10295268;28;20047;-79
2022/09/15 02:17:15;;;;;;;5.75;4.95;;;;;;;;;;10293286;28;20174;-80
2022/09/15 02:22:23;;;;;;;6.45;5.20;;;;;;;;;;10275248;28;20046;-81
2022/09/15 02:27:31;;;;;;;6.80;5.22;;;;;;;;;;10275310;28;20423;-81
2022/09/15 02:32:39;;;;;;;7.55;5.93;;;;;;;;;;10291983;28;20043;-80
2022/09/15 02:37:44;;;;;;;9.05;5.97;;;;;;;;;;10274918;28;20533;-80
2022/09/15 02:42:54;;;;;;;8.18;6.13;;;;;;;;;;10293733;28;20090;-79
2022/09/15 02:47:59;;;;;;;7.20;5.43;;;;;;;;;;10275487;28;20842;-80
2022/09/15 02:53:03;;;;;;;9.63;7.25;;;;;;;;;;10273913;28;20526;-79
2022/09/15 02:58:07;;;;;;;11.02;7.25;;;;;;;;;;10291682;28;20553;-79
2022/09/15 03:03:12;;;;;;;9.20;6.57;;;;;;;;;;10274221;28;20034;-80
2022/09/15 03:08:15;;;;;;;8.60;6.25;;;;;;;;;;10277413;28;20035;-81
2022/09/15 03:13:19;;;;;;;10.35;5.97;;;;;;;;;;10282726;28;20114;-79
2022/09/15 03:18:24;;;;;;;6.47;5.22;;;;;;;;;;10298457;28;20504;-80
2022/09/15 03:23:28;;;;;;;6.13;5.25;;;;;;;;;;10281280;28;20047;-81
2022/09/15 03:28:31;;;;;;;6.05;5.13;;;;;;;;;;10281526;28;20089;-80
2022/09/15 03:33:37;;;;;;;7.65;5.32;;;;;;;;;;10282055;28;20042;-80
2022/09/15 03:38:40;;;;;;;6.37;4.30;;;;;;;;;;10273127;28;20532;-80
2022/09/15 03:43:44;;;;;;;5.72;4.35;;;;;;;;;;10281227;28;20093;-78
2022/09/15 03:48:49;;;;;;;6.68;5.15;;;;;;;;;;10280234;28;20055;-80
2022/09/15 03:53:52;;;;;;;4.45;3.70;;;;;;;;;;10280753;28;20051;-80
2022/09/15 03:58:56;;;;;;;6.82;4.28;;;;;;;;;;10280047;28;20117;-79
2022/09/15 04:04:01;;;;;;;4.78;3.63;;;;;;;;;;10297762;28;20058;-80
2022/09/15 04:09:05;;;;;;;5.27;3.90;;;;;;;;;;10297194;28;20074;-78
2022/09/15 04:14:09;;;;;;;5.07;3.95;;;;;;;;;;10280118;28;20046;-79
2022/09/15 04:19:13;;;;;;;4.15;3.28;;;;;;;;;;10277343;28;20447;-79
2022/09/15 04:24:17;;;;;;;7.47;3.60;;;;;;;;;;10297640;28;20042;-80
2022/09/15 04:29:20;;;;;;;7.45;5.25;;;;;;;;;;10299170;28;20146;-79
2022/09/15 04:34:25;;;;;;;4.28;3.42;;;;;;;;;;10301000;28;20121;-80
2022/09/15 04:39:29;;;;;;;4.78;3.25;;;;;;;;;;10283454;28;20122;-81
2022/09/15 04:44:32;;;;;;;4.47;3.17;;;;;;;;;;10281639;28;20046;-81
2022/09/15 04:49:37;;;;;;;5.45;3.28;;;;;;;;;;10272409;28;20137;-79
2022/09/15 04:54:41;;;;;;;4.70;2.78;;;;;;;;;;10280283;28;20070;-79
2022/09/15 04:59:44;;;;;;;3.25;2.67;;;;;;;;;;10279614;28;20074;-79
2022/09/15 05:04:50;;;;;;;4.75;3.25;;;;;;;;;;10279611;28;20074;-81
2022/09/15 05:09:54;;;;;;;5.88;4.20;;;;;;;;;;10296868;28;20451;-80
2022/09/15 05:14:57;;;;;;;5.53;3.33;;;;;;;;;;10296771;28;20078;-81
2022/09/15 05:20:03;;;;;;;5.18;3.53;;;;;;;;;;10295357;28;20042;-78
2022/09/15 05:25:07;;;;;;;;;;;;;;;;;;10278996;28;20043;-80
2022/09/15 05:30:11;;;;;;;7.18;3.58;;;;;;;;;;10294884;28;19922;-79
2022/09/15 05:35:36;;;;;;;4.45;3.20;;;;;;;;;;10276509;28;20068;-79
2022/09/15 05:40:39;;;;;;;4.10;3.17;;;;;;;;;;10269899;28;20046;-79
2022/09/15 05:45:43;;;;;;;4.93;3.00;;;;;;;;;;10277454;28;21245;-80
2022/09/15 05:50:51;;;;;;;4.72;3.30;;;;;;;;;;10276481;28;20098;-80
2022/09/15 05:55:55;;;;;;;7.13;3.05;;;;;;;;;;10276329;28;20042;-80
2022/09/15 06:01:06;;;;;;;6.47;4.13;;;;;;;;;;10293799;28;20035;-80
2022/09/15 06:06:12;;;;;;;4.40;3.53;;;;;;;;;;10276291;28;20039;-79
2022/09/15 06:11:17;;;;;;;5.38;3.40;;;;;;;;;;10275134;28;20728;-80
2022/09/15 06:16:23;;;;;;;5.97;4.07;;;;;;;;;;10275349;28;20035;-79
2022/09/15 06:21:30;;;;;;;4.63;3.55;;;;;;;;;;10291577;28;20155;-79
2022/09/15 06:26:34;;;;;;;5.25;3.38;;;;;;;;;;10274146;28;20055;-79
2022/09/15 06:31:40;;;;;;;9.13;5.13;;;;;;;;;;10273745;28;20061;-79
2022/09/15 06:36:45;;;;;;;;;;;;;;;;;;10292297;28;20061;-77
2022/09/15 06:41:48;;;;;;;8.43;5.25;;;;;;;;;;10291699;28;19960;-80
2022/09/15 06:47:04;;;;;;;11.30;7.17;;;;;;;;;;10297249;28;20039;-80
2022/09/15 06:52:09;;;;;;;9.70;7.40;;;;;;;;;;10279380;28;20125;-80
2022/09/15 06:57:12;;;;;;;12.07;6.85;;;;;;;;;;10296870;28;20066;-80
2022/09/15 07:02:16;;;;;;;16.02;9.65;;;;;;;;;;10296369;28;20466;-80
2022/09/15 07:07:21;;;;;;;9.63;6.47;;;;;;;;;;10277776;28;20051;-80
2022/09/15 07:12:25;;;;;;;10.55;6.63;;;;;;;;;;10293873;28;20073;-80
2022/09/15 07:17:29;;;;;;;12.85;7.22;;;;;;;;;;10275538;28;20122;-80
2022/09/15 07:22:34;;;;;;;10.32;6.80;;;;;;;;;;10275884;28;20039;-78
2022/09/15 07:27:38;;;;;;;9.80;6.75;;;;;;;;;;10267747;28;20043;-80
2022/09/15 07:32:41;;;;;;;24.48;14.07;;;;;;;;;;10292455;28;20063;-79
2022/09/15 07:37:47;;;;;;;12.80;7.70;;;;;;;;;;10291371;28;20113;-80
2022/09/15 07:42:50;;;;;;;11.47;7.97;;;;;;;;;;10291308;28;20142;-80
2022/09/15 07:47:55;;;;;;;9.63;6.60;;;;;;;;;;10273927;28;20134;-79
2022/09/15 07:53:02;;;;;;;15.23;9.77;;;;;;;;;;10274058;28;20113;-79
2022/09/15 07:58:06;;;;;;;8.53;6.93;;;;;;;;;;10280191;28;20035;-80
2022/09/15 08:03:11;;;;;;;10.20;6.30;;;;;;;;;;10279014;28;20058;-78
2022/09/15 08:08:16;;;;;;;20.95;13.13;;;;;;;;;;10297447;28;20035;-78
2022/09/15 08:13:19;;;;;;;11.43;7.50;;;;;;;;;;10280692;28;20093;-80
2022/09/15 08:18:23;;;;;;;8.73;6.20;;;;;;;;;;10278913;28;20070;-77
2022/09/15 08:23:28;;;;;;;8.43;5.70;;;;;;;;;;10297460;28;20098;-79
2022/09/15 08:28:31;;;;;;;8.10;5.40;;;;;;;;;;10297408;28;20773;-80
2022/09/15 08:33:35;;;;;;;9.38;6.15;;;;;;;;;;10279768;28;20649;-79
2022/09/15 08:38:41;;;;;;;8.68;6.40;;;;;;;;;;10288822;28;20097;-79
2022/09/15 08:43:49;;;;;;;7.65;5.53;;;;;;;;;;10279962;28;20109;-80
2022/09/15 08:49:00;;;;;;;9.20;6.28;;;;;;;;;;10297463;28;20057;-80
2022/09/15 08:54:13;;;;;;;12.93;9.30;;;;;;;;;;10279263;28;20053;-79
2022/09/15 08:59:18;;;;;;;8.57;6.47;;;;;;;;;;10295281;28;20098;-80
2022/09/15 09:04:34;;;;;;;10.63;7.15;;;;;;;;;;10298659;28;20093;-80
2022/09/15 09:09:46;;;;;;;12.02;8.77;;;;;;;;;;10272922;28;20061;-78
2022/09/15 09:15:06;;;;;;;8.10;5.68;;;;;;;;;;10298269;28;20051;-80
2022/09/15 09:20:30;;;;;;;13.18;9.77;;;;;;;;;;10298523;28;20170;-79
2022/09/15 09:25:36;;;;;;;8.88;6.22;;;;;;;;;;10278635;28;20051;-80
2022/09/15 09:30:40;;;;;;;9.07;5.35;;;;;;;;;;10288255;28;20051;-79
2022/09/15 09:35:44;;;;;;;13.05;9.75;;;;;;;;;;10275806;28;20058;-79
2022/09/15 09:40:50;;;;;;;5.68;4.68;;;;;;;;;;10292732;28;20073;-79
2022/09/15 09:45:53;;;;;;;12.03;7.97;;;;;;;;;;10292016;28;20058;-78
2022/09/15 09:50:57;;;;;;;12.18;8.85;;;;;;;;;;10275872;28;20283;-79
2022/09/15 09:56:22;;;;;;;10.73;7.95;;;;;;;;;;10293852;28;20399;-79
2022/09/15 10:01:26;;;;;;;7.18;5.47;;;;;;;;;;10275308;28;20042;-78
2022/09/15 10:06:32;;;;;;;5.82;3.55;;;;;;;;;;10293344;28;20057;-79
2022/09/15 10:11:44;;;;;;;14.77;9.55;;;;;;;;;;10284604;28;20462;-78
2022/09/15 10:16:58;;;;;;;5.22;4.20;;;;;;;;;;10291927;28;20081;-77
2022/09/15 10:22:04;;;;;;;9.73;6.70;;;;;;;;;;10274788;28;20076;-78
2022/09/15 10:27:19;;;;;;;10.55;7.38;;;;;;;;;;10291096;28;20043;-79
2022/09/15 10:32:26;;;;;;;11.02;6.50;;;;;;;;;;10286816;28;20082;-80
2022/09/15 10:37:34;;;;;;;6.13;3.88;;;;;;;;;;10291544;28;20042;-79
2022/09/15 10:42:50;;;;;;;6.22;4.38;;;;;;;;;;10283946;28;20097;-78
2022/09/15 10:48:08;;;;;;;5.57;3.95;;;;;;;;;;10292460;28;20053;-78
2022/09/15 10:53:19;;;;;;;3.47;2.58;;;;;;;;;;10274308;28;20133;-79
2022/09/15 10:58:34;;;;;;;3.90;2.65;;;;;;;;;;10290971;28;20039;-79
2022/09/15 11:03:54;;;;;;;3.03;2.20;;;;;;;;;;10283359;28;20054;-79
2022/09/15 11:09:15;;;;;;;4.05;3.10;;;;;;;;;;10291316;28;20051;-77
2022/09/15 11:14:40;;;;;;;5.10;3.78;;;;;;;;;;10273045;28;20042;-79
2022/09/15 11:20:04;;;;;;;5.03;2.80;;;;;;;;;;10283594;28;20042;-78
2022/09/15 11:25:14;;;;;;;3.92;2.70;;;;;;;;;;10291635;28;20043;-78
2022/09/15 11:30:21;;;;;;;4.95;3.20;;;;;;;;;;10298527;28;20050;-79
2022/09/15 11:35:37;;;;;;;3.30;2.13;;;;;;;;;;10300784;28;20600;-79
2022/09/15 11:40:47;;;;;;;6.55;3.35;;;;;;;;;;10291848;28;20046;-79
2022/09/15 11:45:56;;;;;;;4.45;2.50;;;;;;;;;;10284009;28;20120;-79
2022/09/15 11:51:02;;;;;;;2.33;1.58;;;;;;;;;;10280585;28;20038;-79
2022/09/15 11:56:14;;;;;;;3.10;2.13;;;;;;;;;;10282309;28;20051;-79
2022/09/15 12:01:21;;;;;;;3.28;2.40;;;;;;;;;;10299398;28;20047;-78
2022/09/15 12:06:29;;;;;;;2.80;1.63;;;;;;;;;;10281024;28;20097;-78
2022/09/15 12:11:35;;;;;;;3.30;2.20;;;;;;;;;;10299230;28;20046;-79
2022/09/15 12:16:40;;;;;;;;;;;;;;;;;;10280891;28;20043;-78
2022/09/15 12:21:51;;;;;;;1.75;1.65;;;;;;;;;;10280119;28;19926;-78
2022/09/15 12:26:54;;;;;;;3.40;2.13;;;;;;;;;;10280687;28;20054;-78
2022/09/15 12:32:18;;;;;;;3.00;2.10;;;;;;;;;;10297461;28;20046;-78
2022/09/15 12:37:23;;;;;;;1.80;1.40;;;;;;;;;;10337349;28;20629;-79
2022/09/15 12:42:30;;;;;;;3.50;1.80;;;;;;;;;;10335513;28;20056;-78
2022/09/15 12:47:39;;;;;;;2.20;1.60;;;;;;;;;;10319194;28;20049;-79
2022/09/15 12:52:45;;;;;;;2.65;1.73;;;;;;;;;;10319303;28;20050;-79
2022/09/15 12:57:50;;;;;;;;;;;;;;;;;;10336941;28;20537;-78
2022/09/15 13:02:55;;;;;;;1.58;1.02;;;;;;;;;;10318907;28;19933;-80
2022/09/15 13:07:59;;;;;;;1.73;1.10;;;;;;;;;;10336132;28;20053;-79
2022/09/15 13:13:24;;;;;;;2.53;1.48;;;;;;;;;;10335454;28;20410;-78
2022/09/15 13:18:32;;;;;;;2.05;1.15;;;;;;;;;;10335033;28;20057;-78
2022/09/15 13:23:39;;;;;;;2.47;1.20;;;;;;;;;;10336529;28;20495;-77
2022/09/15 13:28:43;;;;;;;3.17;1.23;;;;;;;;;;10311087;28;20046;-79
2022/09/15 13:34:15;;;;;;;1.77;1.33;;;;;;;;;;10334880;28;20510;-78
2022/09/15 13:39:52;;;;;;;1.55;1.15;;;;;;;;;;10317928;28;20561;-78
2022/09/15 13:45:26;;;;;;;2.67;1.10;;;;;;;;;;10321160;28;20488;-78
2022/09/15 13:50:37;;;;;;;2.47;1.00;;;;;;;;;;10334144;28;20039;-78
2022/09/15 13:55:42;;;;;;;1.10;0.70;;;;;;;;;;10321441;28;20053;-79
2022/09/15 14:00:55;;;;;;;3.28;0.80;;;;;;;;;;10338283;28;20057;-78
2022/09/15 14:05:59;;;;;;;0.80;0.70;;;;;;;;;;10338437;28;20137;-78
2022/09/15 14:11:07;;;;;;;1.60;0.90;;;;;;;;;;10337126;28;20034;-79
2022/09/15 14:16:24;;;;;;;2.38;1.00;;;;;;;;;;10335720;28;20060;-78
2022/09/15 14:21:30;;;;;;;0.88;0.80;;;;;;;;;;10335439;28;20034;-79
2022/09/15 14:26:35;;;;;;;1.38;1.00;;;;;;;;;;10335229;28;20042;-78
2022/09/15 14:31:40;;;;;;;4.28;1.45;;;;;;;;;;10328049;28;20035;-79
2022/09/15 14:36:44;;;;;;;1.77;0.98;;;;;;;;;;10334468;28;20589;-77
2022/09/15 14:41:48;;;;;;;0.93;0.60;;;;;;;;;;10334811;28;20610;-77
2022/09/15 14:46:52;;;;;;;2.35;1.10;;;;;;;;;;10316142;28;20056;-78
2022/09/15 14:51:56;;;;;;;2.92;1.25;;;;;;;;;;10333188;28;20055;-77
2022/09/15 14:57:02;;;;;;;3.17;1.10;;;;;;;;;;10333181;28;20435;-78
2022/09/15 15:02:19;;;;;;;1.08;0.70;;;;;;;;;;10332876;28;20513;-77
2022/09/15 15:07:26;;;;;;;1.83;1.23;;;;;;;;;;10331744;28;20058;-77
2022/09/15 15:12:33;;;;;;;3.05;1.40;;;;;;;;;;10332627;28;20039;-77
2022/09/15 15:17:38;;;;;;;0.93;0.60;;;;;;;;;;10324323;28;20046;-77
2022/09/15 15:22:44;;;;;;;1.30;0.70;;;;;;;;;;10315325;28;20047;-78
2022/09/15 15:27:51;;;;;;;;;;;;;;;;;;10332068;28;20057;-77
2022/09/15 15:32:55;;;;;;;0.50;0.43;;;;;;;;;;10331315;28;19921;-78
2022/09/15 15:38:05;;;;;;;1.35;0.90;;;;;;;;;;10330400;28;20053;-78
2022/09/15 15:43:21;;;;;;;1.45;1.17;;;;;;;;;;10331222;28;20039;-77
2022/09/15 15:48:25;;;;;;;1.13;0.90;;;;;;;;;;10313174;28;20050;-78
2022/09/15 15:53:29;;;;;;;1.10;0.50;;;;;;;;;;10330158;28;20047;-78
2022/09/15 15:58:33;;;;;;;0.82;0.60;;;;;;;;;;10330510;28;20055;-79
2022/09/15 16:03:36;;;;;;;1.75;0.82;;;;;;;;;;10310220;28;20047;-78
2022/09/15 16:08:44;;;;;;;0.85;0.50;;;;;;;;;;10336371;28;20038;-79
2022/09/15 16:13:47;;;;;;;3.58;1.08;;;;;;;;;;10335551;28;20055;-78
2022/09/15 16:18:51;;;;;;;1.73;0.75;;;;;;;;;;10342036;28;20050;-78
2022/09/15 16:23:56;;;;;;;3.13;1.00;;;;;;;;;;10341683;28;20056;-79
2022/09/15 16:28:59;;;;;;;1.35;0.82;;;;;;;;;;10323585;28;20046;-78
2022/09/15 16:34:02;;;;;;;2.20;0.80;;;;;;;;;;10340591;28;20046;-79
2022/09/15 16:39:07;;;;;;;1.10;0.60;;;;;;;;;;10340202;28;20050;-78
2022/09/15 16:44:18;;;;;;;2.30;0.75;;;;;;;;;;10340704;28;20058;-78
2022/09/15 16:49:21;;;;;;;0.73;0.47;;;;;;;;;;10321092;28;20038;-78
2022/09/15 16:54:26;;;;;;;1.52;0.60;;;;;;;;;;10320900;28;20058;-78
2022/09/15 16:59:30;;;;;;;1.73;0.50;;;;;;;;;;10320559;28;20595;-77
2022/09/15 17:04:33;;;;;;;1.27;0.60;;;;;;;;;;10337770;28;20046;-79
2022/09/15 17:09:38;;;;;;;1.10;0.73;;;;;;;;;;10329873;28;20042;-78
2022/09/15 17:14:41;;;;;;;0.75;0.60;;;;;;;;;;10336450;28;20047;-78
2022/09/15 17:19:44;;;;;;;0.90;0.60;;;;;;;;;;10318212;28;20046;-78
2022/09/15 17:24:49;;;;;;;2.17;0.75;;;;;;;;;;10336288;28;20141;-78
2022/09/15 17:29:52;;;;;;;1.85;0.95;;;;;;;;;;10335076;28;20406;-78
2022/09/15 17:34:55;;;;;;;3.65;0.88;;;;;;;;;;10336397;28;20062;-77
2022/09/15 17:40:01;;;;;;;2.25;1.38;;;;;;;;;;10334607;28;20054;-77
2022/09/15 17:45:14;;;;;;;1.75;1.10;;;;;;;;;;10334759;28;20054;-77
2022/09/15 17:50:19;;;;;;;2.55;1.17;;;;;;;;;;10334675;28;20056;-77
2022/09/15 17:55:27;;;;;;;0.80;0.60;;;;;;;;;;10335235;28;20049;-78
2022/09/15 18:00:33;;;;;;;1.40;0.40;;;;;;;;;;10333239;28;20617;-78
2022/09/15 18:05:37;;;;;;;0.60;0.60;;;;;;;;;;10333792;28;20045;-77
2022/09/15 18:10:42;;;;;;;0.93;0.50;;;;;;;;;;10315124;28;20044;-78
2022/09/15 18:15:47;;;;;;;0.50;0.50;;;;;;;;;;10332519;28;20058;-78
2022/09/15 18:20:51;;;;;;;1.70;0.50;;;;;;;;;;10334641;28;20121;-78
2022/09/15 18:25:56;;;;;;;1.10;0.55;;;;;;;;;;10338032;28;20049;-79
2022/09/15 18:31:00;;;;;;;0.50;0.40;;;;;;;;;;10336587;28;20073;-79
2022/09/15 18:36:07;;;;;;;1.02;0.60;;;;;;;;;;10335446;28;20045;-79
2022/09/15 18:41:11;;;;;;;0.80;0.32;;;;;;;;;;10336174;28;20038;-78
2022/09/15 18:46:16;;;;;;;0.45;0.40;;;;;;;;;;10317082;28;20050;-79
2022/09/15 18:51:20;;;;;;;1.50;0.70;;;;;;;;;;10316503;28;20137;-78
2022/09/15 18:56:28;;;;;;;0.77;0.50;;;;;;;;;;10332796;28;20421;-77
2022/09/15 19:01:33;;;;;;;1.30;0.30;;;;;;;;;;10332245;28;20058;-77
2022/09/15 19:06:36;;;;;;;2.42;0.52;;;;;;;;;;10308660;28;20046;-78
2022/09/15 19:11:41;;;;;;;0.30;0.30;;;;;;;;;;10333063;28;20039;-78
2022/09/15 19:16:44;;;;;;;1.83;0.80;;;;;;;;;;10332143;28;20051;-78
2022/09/15 19:21:59;;;;;;;0.70;0.35;;;;;;;;;;10314564;28;20094;-77
2022/09/15 19:27:04;;;;;;;3.30;1.20;;;;;;;;;;10306835;28;20058;-78
2022/09/15 19:32:09;;;;;;;1.00;0.60;;;;;;;;;;10332184;28;20049;-78
2022/09/15 19:37:14;;;;;;;1.98;1.05;;;;;;;;;;10314819;28;20053;-78
2022/09/15 19:42:21;;;;;;;0.70;0.60;;;;;;;;;;10331099;28;20113;-79
2022/09/15 19:47:25;;;;;;;1.15;0.57;;;;;;;;;;10331265;28;20045;-79
2022/09/15 19:52:28;;;;;;;0.95;0.60;;;;;;;;;;10319981;28;20042;-77
2022/09/15 19:57:33;;;;;;;1.67;0.70;;;;;;;;;;10338390;28;20057;-78
2022/09/15 20:02:36;;;;;;;0.60;0.40;;;;;;;;;;10338330;28;20129;-77
2022/09/15 20:07:40;;;;;;;0.50;0.38;;;;;;;;;;10320185;28;20128;-79
2022/09/15 20:12:44;;;;;;;2.88;0.63;;;;;;;;;;10337010;28;20038;-78
2022/09/15 20:17:47;;;;;;;1.15;0.60;;;;;;;;;;10336778;28;20423;-79
2022/09/15 20:22:51;;;;;;;0.52;0.40;;;;;;;;;;10319873;28;20050;-79
2022/09/15 20:27:55;;;;;;;0.65;0.30;;;;;;;;;;10318909;28;20054;-79
2022/09/15 20:32:58;;;;;;;0.82;0.50;;;;;;;;;;10336333;28;20042;-79
2022/09/15 20:38:02;;;;;;;0.75;0.40;;;;;;;;;;10320145;28;20046;-79
2022/09/15 20:43:06;;;;;;;1.23;0.50;;;;;;;;;;10319823;28;20035;-79
2022/09/15 20:48:10;;;;;;;0.77;0.40;;;;;;;;;;10336207;28;20126;-78
2022/09/15 20:53:13;;;;;;;0.38;0.38;;;;;;;;;;10318147;28;20113;-78
2022/09/15 20:58:18;;;;;;;0.40;0.40;;;;;;;;;;10334756;28;20042;-79
2022/09/15 21:03:23;;;;;;;1.08;0.38;;;;;;;;;;10316334;28;20039;-79
2022/09/15 21:08:27;;;;;;;0.47;0.30;;;;;;;;;;10316347;28;20058;-77
2022/09/15 21:13:36;;;;;;;1.95;0.60;;;;;;;;;;10317211;28;20093;-78
2022/09/15 21:18:40;;;;;;;0.77;0.60;;;;;;;;;;10316815;28;20038;-79
2022/09/15 21:23:45;;;;;;;0.95;0.30;;;;;;;;;;10317993;28;20042;-79
2022/09/15 21:28:50;;;;;;;1.65;0.77;;;;;;;;;;10335396;28;20129;-78
2022/09/15 21:33:56;;;;;;;2.20;0.40;;;;;;;;;;10317412;28;20046;-79
2022/09/15 21:39:01;;;;;;;1.20;0.40;;;;;;;;;;10333518;28;20642;-77
2022/09/15 21:44:06;;;;;;;1.73;0.83;;;;;;;;;;10316917;28;20042;-79
2022/09/15 21:49:09;;;;;;;1.60;0.45;;;;;;;;;;10335258;28;20070;-78
2022/09/15 21:54:13;;;;;;;1.35;0.40;;;;;;;;;;10334555;28;20058;-78
2022/09/15 21:59:18;;;;;;;8.93;0.57;;;;;;;;;;10317059;28;20525;-79
2022/09/15 22:04:21;;;;;;;1.45;0.52;;;;;;;;;;10334533;28;20038;-79
2022/09/15 22:09:25;;;;;;;0.65;0.30;;;;;;;;;;10333440;28;20042;-79
2022/09/15 22:14:30;;;;;;;0.82;0.50;;;;;;;;;;10316032;28;20062;-78
2022/09/15 22:19:33;;;;;;;2.37;0.87;;;;;;;;;;10332995;28;20049;-78
2022/09/15 22:24:37;;;;;;;0.22;0.20;;;;;;;;;;10324837;28;20051;-79
2022/09/15 22:29:41;;;;;;;1.95;0.50;;;;;;;;;;10332103;28;20046;-78
2022/09/15 22:34:45;;;;;;;2.58;0.50;;;;;;;;;;10306923;28;20058;-79
2022/09/15 22:39:48;;;;;;;1.00;0.30;;;;;;;;;;10331721;28;20061;-78
2022/09/15 22:45:01;;;;;;;0.55;0.30;;;;;;;;;;10315134;28;20068;-79
2022/09/15 22:50:05;;;;;;;0.38;0.20;;;;;;;;;;10313986;28;20041;-79
2022/09/15 22:55:09;;;;;;;1.70;0.82;;;;;;;;;;10331893;28;20085;-79
2022/09/15 23:00:15;;;;;;;1.38;0.57;;;;;;;;;;10330287;28;20046;-79
2022/09/15 23:05:18;;;;;;;0.35;0.25;;;;;;;;;;10329776;28;20517;-78
2022/09/15 23:10:22;;;;;;;1.10;0.30;;;;;;;;;;10311401;28;20636;-77
2022/09/15 23:15:27;;;;;;;1.85;0.50;;;;;;;;;;10312770;28;20042;-78
2022/09/15 23:20:31;;;;;;;1.50;0.50;;;;;;;;;;10329968;28;20050;-78
2022/09/15 23:25:34;;;;;;;1.15;0.30;;;;;;;;;;10316401;28;20653;-79
2022/09/15 23:30:40;;;;;;;0.68;0.32;;;;;;;;;;10329614;28;20423;-77
2022/09/15 23:35:43;;;;;;;1.03;0.50;;;;;;;;;;10338108;28;20043;-78
2022/09/15 23:40:48;;;;;;;1.15;0.30;;;;;;;;;;10338223;28;20081;-79
2022/09/15 23:45:52;;;;;;;1.67;0.30;;;;;;;;;;10337733;28;20074;-78
2022/09/15 23:50:56;;;;;;;0.93;0.30;;;;;;;;;;10336869;28;20058;-80
2022/09/15 23:55:59;;;;;;;0.95;0.50;;;;;;;;;;10337399;28;20510;-79
